sensor_id;sensor_type;location;lat;lon;timestamp;pressure;altitude;pressure_sealevel;temperature;humidity
23574;BME280;11965;53.640;10.050;2023-07-30T00:00:37;100524.72;;;15.94;100.00
23574;BME280;11965;53.640;10.050;2023-07-30T00:03:03;100516.41;;;15.87;100.00
23574;BME280;11965;53.640;10.050;2023-07-30T00:05:31;100522.75;;;15.83;100.00
23574;BME280;11965;53.640;10.050;2023-07-30T00:07:59;100520.53;;;15.85;100.00
23574;BME280;11965;53.640;10.050;2023-07-30T00:10:26;100527.00;;;15.85;100.00
23574;BME280;11965;53.640;10.050;2023-07-30T00:12:52;100528.69;;;15.86;100.00
23574;BME280;11965;53.640;10.050;2023-07-30T00:15:19;100520.53;;;15.85;100.00
23574;BME280;11965;53.640;10.050;2023-07-30T00:17:46;100539.66;;;15.88;100.00
23574;BME280;11965;53.640;10.050;2023-07-30T00:20:13;100532.72;;;15.90;100.00
23574;BME280;11965;53.640;10.050;2023-07-30T00:22:40;100529.19;;;15.95;100.00
23574;BME280;11965;53.640;10.050;2023-07-30T00:25:09;100529.81;;;15.97;100.00
23574;BME280;11965;53.640;10.050;2023-07-30T00:27:46;100537.25;;;16.03;100.00
23574;BME280;11965;53.640;10.050;2023-07-30T00:30:13;100532.28;;;16.05;100.00
23574;BME280;11965;53.640;10.050;2023-07-30T00:32:40;100536.53;;;16.08;100.00
23574;BME280;11965;53.640;10.050;2023-07-30T00:35:09;100532.63;;;16.09;100.00
23574;BME280;11965;53.640;10.050;2023-07-30T00:37:36;100531.72;;;16.15;100.00
23574;BME280;11965;53.640;10.050;2023-07-30T00:40:05;100532.56;;;16.16;100.00
23574;BME280;11965;53.640;10.050;2023-07-30T00:42:34;100522.44;;;16.15;100.00
23574;BME280;11965;53.640;10.050;2023-07-30T00:45:01;100523.53;;;16.13;100.00
23574;BME280;11965;53.640;10.050;2023-07-30T00:47:30;100519.91;;;16.13;100.00
23574;BME280;11965;53.640;10.050;2023-07-30T00:49:57;100532.56;;;16.16;100.00
23574;BME280;11965;53.640;10.050;2023-07-30T00:52:26;100535.34;;;16.16;100.00
23574;BME280;11965;53.640;10.050;2023-07-30T00:54:54;100526.13;;;16.15;100.00
23574;BME280;11965;53.640;10.050;2023-07-30T00:57:23;100516.63;;;16.16;100.00
23574;BME280;11965;53.640;10.050;2023-07-30T00:59:53;100509.81;;;16.12;100.00
23574;BME280;11965;53.640;10.050;2023-07-30T01:02:21;100500.94;;;16.15;100.00
23574;BME280;11965;53.640;10.050;2023-07-30T01:04:49;100495.84;;;16.12;100.00
23574;BME280;11965;53.640;10.050;2023-07-30T01:07:17;100496.78;;;16.06;100.00
23574;BME280;11965;53.640;10.050;2023-07-30T01:09:44;100501.31;;;16.07;100.00
23574;BME280;11965;53.640;10.050;2023-07-30T01:12:11;100492.78;;;16.02;100.00
23574;BME280;11965;53.640;10.050;2023-07-30T01:14:39;100510.88;;;15.99;100.00
23574;BME280;11965;53.640;10.050;2023-07-30T01:17:13;100516.00;;;16.14;100.00
23574;BME280;11965;53.640;10.050;2023-07-30T01:19:40;100529.13;;;16.13;100.00
23574;BME280;11965;53.640;10.050;2023-07-30T01:22:08;100527.66;;;16.11;100.00
23574;BME280;11965;53.640;10.050;2023-07-30T01:24:35;100521.56;;;16.02;100.00
23574;BME280;11965;53.640;10.050;2023-07-30T01:27:07;100530.03;;;15.84;100.00
23574;BME280;11965;53.640;10.050;2023-07-30T01:29:51;100540.53;;;15.70;100.00
23574;BME280;11965;53.640;10.050;2023-07-30T01:32:25;100547.81;;;15.71;100.00
23574;BME280;11965;53.640;10.050;2023-07-30T01:34:54;100543.34;;;15.70;100.00
23574;BME280;11965;53.640;10.050;2023-07-30T01:37:23;100537.66;;;15.58;100.00
23574;BME280;11965;53.640;10.050;2023-07-30T01:39:53;100530.06;;;15.47;100.00
23574;BME280;11965;53.640;10.050;2023-07-30T01:42:20;100540.22;;;15.41;100.00
23574;BME280;11965;53.640;10.050;2023-07-30T01:44:54;100529.38;;;15.33;100.00
23574;BME280;11965;53.640;10.050;2023-07-30T01:47:21;100539.53;;;15.28;100.00
23574;BME280;11965;53.640;10.050;2023-07-30T01:49:48;100535.69;;;15.29;100.00
23574;BME280;11965;53.640;10.050;2023-07-30T01:52:14;100529.22;;;15.28;100.00
23574;BME280;11965;53.640;10.050;2023-07-30T01:54:43;100532.13;;;15.21;100.00
23574;BME280;11965;53.640;10.050;2023-07-30T01:57:10;100533.06;;;15.15;100.00
23574;BME280;11965;53.640;10.050;2023-07-30T01:59:38;100532.00;;;15.10;100.00
23574;BME280;11965;53.640;10.050;2023-07-30T02:02:05;100533.56;;;15.06;100.00
23574;BME280;11965;53.640;10.050;2023-07-30T02:04:33;100530.41;;;15.02;100.00
23574;BME280;11965;53.640;10.050;2023-07-30T02:07:00;100529.16;;;14.98;100.00
23574;BME280;11965;53.640;10.050;2023-07-30T02:09:27;100529.53;;;15.01;100.00
23574;BME280;11965;53.640;10.050;2023-07-30T02:11:56;100532.25;;;15.08;100.00
23574;BME280;11965;53.640;10.050;2023-07-30T02:14:23;100532.72;;;15.05;100.00
23574;BME280;11965;53.640;10.050;2023-07-30T02:16:50;100525.69;;;15.02;100.00
23574;BME280;11965;53.640;10.050;2023-07-30T02:19:17;100522.88;;;15.02;100.00
23574;BME280;11965;53.640;10.050;2023-07-30T02:21:44;100535.38;;;15.00;100.00
23574;BME280;11965;53.640;10.050;2023-07-30T02:24:10;100522.88;;;15.02;100.00
23574;BME280;11965;53.640;10.050;2023-07-30T02:26:37;100531.09;;;14.97;100.00
23574;BME280;11965;53.640;10.050;2023-07-30T02:29:06;100535.03;;;14.90;100.00
23574;BME280;11965;53.640;10.050;2023-07-30T02:31:33;100535.88;;;14.90;100.00
23574;BME280;11965;53.640;10.050;2023-07-30T02:34:00;100536.13;;;14.89;100.00
23574;BME280;11965;53.640;10.050;2023-07-30T02:36:26;100541.47;;;14.90;100.00
23574;BME280;11965;53.640;10.050;2023-07-30T02:38:53;100538.03;;;14.88;100.00
23574;BME280;11965;53.640;10.050;2023-07-30T02:41:20;100535.13;;;14.83;100.00
23574;BME280;11965;53.640;10.050;2023-07-30T02:43:47;100542.00;;;14.80;100.00
23574;BME280;11965;53.640;10.050;2023-07-30T02:46:15;100543.31;;;14.78;100.00
23574;BME280;11965;53.640;10.050;2023-07-30T02:48:42;100550.81;;;14.77;100.00
23574;BME280;11965;53.640;10.050;2023-07-30T02:51:09;100543.50;;;14.83;100.00
23574;BME280;11965;53.640;10.050;2023-07-30T02:53:35;100545.88;;;14.79;100.00
23574;BME280;11965;53.640;10.050;2023-07-30T02:56:02;100556.66;;;14.76;100.00
23574;BME280;11965;53.640;10.050;2023-07-30T02:58:29;100556.19;;;14.79;100.00
23574;BME280;11965;53.640;10.050;2023-07-30T03:01:05;100544.63;;;14.75;100.00
23574;BME280;11965;53.640;10.050;2023-07-30T03:03:33;100559.44;;;14.76;100.00
23574;BME280;11965;53.640;10.050;2023-07-30T03:06:00;100562.69;;;14.73;100.00
23574;BME280;11965;53.640;10.050;2023-07-30T03:08:27;100570.88;;;14.68;100.00
23574;BME280;11965;53.640;10.050;2023-07-30T03:10:57;100567.00;;;14.69;100.00
23574;BME280;11965;53.640;10.050;2023-07-30T03:13:24;100562.34;;;14.63;100.00
23574;BME280;11965;53.640;10.050;2023-07-30T03:15:52;100567.53;;;14.59;100.00
23574;BME280;11965;53.640;10.050;2023-07-30T03:18:19;100570.94;;;14.61;100.00
23574;BME280;11965;53.640;10.050;2023-07-30T03:20:47;100564.13;;;14.57;100.00
23574;BME280;11965;53.640;10.050;2023-07-30T03:23:14;100572.69;;;14.55;100.00
23574;BME280;11965;53.640;10.050;2023-07-30T03:25:41;100572.94;;;14.54;100.00
23574;BME280;11965;53.640;10.050;2023-07-30T03:28:08;100577.44;;;14.55;100.00
23574;BME280;11965;53.640;10.050;2023-07-30T03:30:35;100572.69;;;14.55;100.00
23574;BME280;11965;53.640;10.050;2023-07-30T03:33:01;100573.59;;;14.49;100.00
23574;BME280;11965;53.640;10.050;2023-07-30T03:35:28;100580.25;;;14.48;100.00
23574;BME280;11965;53.640;10.050;2023-07-30T03:37:57;100575.75;;;14.47;100.00
23574;BME280;11965;53.640;10.050;2023-07-30T03:40:24;100583.25;;;14.47;100.00
23574;BME280;11965;53.640;10.050;2023-07-30T03:42:52;100582.03;;;14.43;100.00
23574;BME280;11965;53.640;10.050;2023-07-30T03:45:18;100580.53;;;14.40;100.00
23574;BME280;11965;53.640;10.050;2023-07-30T03:47:45;100580.53;;;14.40;100.00
23574;BME280;11965;53.640;10.050;2023-07-30T03:50:12;100586.97;;;14.41;100.00
23574;BME280;11965;53.640;10.050;2023-07-30T03:52:39;100580.53;;;14.40;100.00
23574;BME280;11965;53.640;10.050;2023-07-30T03:55:08;100586.72;;;14.42;100.00
23574;BME280;11965;53.640;10.050;2023-07-30T03:57:35;100586.72;;;14.42;100.00
23574;BME280;11965;53.640;10.050;2023-07-30T04:00:03;100582.63;;;14.45;100.00
23574;BME280;11965;53.640;10.050;2023-07-30T04:02:39;100587.75;;;14.48;100.00
23574;BME280;11965;53.640;10.050;2023-07-30T04:05:07;100583.47;;;14.45;100.00
23574;BME280;11965;53.640;10.050;2023-07-30T04:07:34;100591.41;;;14.48;100.00
23574;BME280;11965;53.640;10.050;2023-07-30T04:10:01;100588.38;;;14.50;100.00
23574;BME280;11965;53.640;10.050;2023-07-30T04:12:29;100588.59;;;14.55;100.00
23574;BME280;11965;53.640;10.050;2023-07-30T04:14:56;100585.97;;;14.60;100.00
23574;BME280;11965;53.640;10.050;2023-07-30T04:17:23;100594.34;;;14.60;100.00
23574;BME280;11965;53.640;10.050;2023-07-30T04:19:50;100590.88;;;14.65;100.00
23574;BME280;11965;53.640;10.050;2023-07-30T04:22:17;100586.78;;;14.67;100.00
23574;BME280;11965;53.640;10.050;2023-07-30T04:24:43;100589.78;;;14.66;100.00
23574;BME280;11965;53.640;10.050;2023-07-30T04:27:10;100588.25;;;14.70;100.00
23574;BME280;11965;53.640;10.050;2023-07-30T04:29:38;100585.00;;;14.73;100.00
23574;BME280;11965;53.640;10.050;2023-07-30T04:32:06;100584.94;;;14.79;100.00
23574;BME280;11965;53.640;10.050;2023-07-30T04:34:33;100592.41;;;14.86;100.00
23574;BME280;11965;53.640;10.050;2023-07-30T04:37:00;100585.66;;;14.93;100.00
23574;BME280;11965;53.640;10.050;2023-07-30T04:39:27;100591.66;;;14.97;100.00
23574;BME280;11965;53.640;10.050;2023-07-30T04:41:54;100593.13;;;14.99;100.00
23574;BME280;11965;53.640;10.050;2023-07-30T04:44:22;100592.34;;;15.11;100.00
23574;BME280;11965;53.640;10.050;2023-07-30T04:46:50;100588.00;;;15.15;100.00
23574;BME280;11965;53.640;10.050;2023-07-30T04:49:17;100589.00;;;15.20;100.00
23574;BME280;11965;53.640;10.050;2023-07-30T04:51:44;100591.91;;;15.32;100.00
23574;BME280;11965;53.640;10.050;2023-07-30T04:54:11;100592.97;;;15.31;100.00
23574;BME280;11965;53.640;10.050;2023-07-30T04:56:38;100591.22;;;15.37;100.00
23574;BME280;11965;53.640;10.050;2023-07-30T04:59:05;100597.97;;;15.48;100.00
23574;BME280;11965;53.640;10.050;2023-07-30T05:01:32;100596.06;;;15.60;100.00
23574;BME280;11965;53.640;10.050;2023-07-30T05:04:00;100594.47;;;15.71;100.00
23574;BME280;11965;53.640;10.050;2023-07-30T05:06:27;100603.59;;;15.96;100.00
23574;BME280;11965;53.640;10.050;2023-07-30T05:08:54;100600.22;;;16.06;100.00
23574;BME280;11965;53.640;10.050;2023-07-30T05:11:21;100593.09;;;16.22;100.00
23574;BME280;11965;53.640;10.050;2023-07-30T05:13:48;100594.72;;;16.29;100.00
23574;BME280;11965;53.640;10.050;2023-07-30T05:16:14;100594.94;;;16.28;100.00
23574;BME280;11965;53.640;10.050;2023-07-30T05:18:41;100594.59;;;16.36;100.00
23574;BME280;11965;53.640;10.050;2023-07-30T05:21:09;100594.06;;;16.16;100.00
23574;BME280;11965;53.640;10.050;2023-07-30T05:23:36;100589.47;;;16.21;100.00
23574;BME280;11965;53.640;10.050;2023-07-30T05:26:03;100588.34;;;16.22;100.00
23574;BME280;11965;53.640;10.050;2023-07-30T05:28:30;100593.88;;;16.29;100.00
23574;BME280;11965;53.640;10.050;2023-07-30T05:30:58;100595.53;;;16.18;100.00
23574;BME280;11965;53.640;10.050;2023-07-30T05:33:25;100604.22;;;16.28;100.00
23574;BME280;11965;53.640;10.050;2023-07-30T05:35:52;100605.41;;;16.32;100.00
23574;BME280;11965;53.640;10.050;2023-07-30T05:38:20;100601.84;;;16.55;100.00
23574;BME280;11965;53.640;10.050;2023-07-30T05:40:47;100595.41;;;16.55;100.00
23574;BME280;11965;53.640;10.050;2023-07-30T05:43:14;100600.81;;;16.80;100.00
23574;BME280;11965;53.640;10.050;2023-07-30T05:45:40;100590.94;;;16.77;100.00
23574;BME280;11965;53.640;10.050;2023-07-30T05:48:07;100595.44;;;17.02;100.00
23574;BME280;11965;53.640;10.050;2023-07-30T05:50:34;100599.34;;;16.77;100.00
23574;BME280;11965;53.640;10.050;2023-07-30T05:53:01;100600.09;;;16.85;100.00
23574;BME280;11965;53.640;10.050;2023-07-30T05:55:29;100598.06;;;16.73;100.00
23574;BME280;11965;53.640;10.050;2023-07-30T05:57:56;100594.22;;;17.10;100.00
23574;BME280;11965;53.640;10.050;2023-07-30T06:00:23;100591.78;;;16.90;100.00
23574;BME280;11965;53.640;10.050;2023-07-30T06:02:50;100600.22;;;17.02;100.00
23574;BME280;11965;53.640;10.050;2023-07-30T06:05:17;100595.56;;;17.19;100.00
23574;BME280;11965;53.640;10.050;2023-07-30T06:07:44;100599.47;;;17.18;100.00
23574;BME280;11965;53.640;10.050;2023-07-30T06:10:11;100591.41;;;17.33;100.00
23574;BME280;11965;53.640;10.050;2023-07-30T06:12:39;100606.28;;;17.10;100.00
23574;BME280;11965;53.640;10.050;2023-07-30T06:15:08;100593.50;;;17.26;100.00
23574;BME280;11965;53.640;10.050;2023-07-30T06:17:35;100604.34;;;17.11;100.00
23574;BME280;11965;53.640;10.050;2023-07-30T06:20:02;100605.41;;;17.45;100.00
23574;BME280;11965;53.640;10.050;2023-07-30T06:22:29;100604.06;;;17.48;100.00
23574;BME280;11965;53.640;10.050;2023-07-30T06:24:55;100602.75;;;17.38;100.00
23574;BME280;11965;53.640;10.050;2023-07-30T06:27:22;100606.38;;;17.39;100.00
23574;BME280;11965;53.640;10.050;2023-07-30T06:29:51;100606.25;;;17.57;100.00
23574;BME280;11965;53.640;10.050;2023-07-30T06:32:18;100608.47;;;18.24;100.00
23574;BME280;11965;53.640;10.050;2023-07-30T06:34:44;100599.56;;;17.99;100.00
23574;BME280;11965;53.640;10.050;2023-07-30T06:37:11;100606.06;;;18.16;100.00
23574;BME280;11965;53.640;10.050;2023-07-30T06:39:38;100608.63;;;18.35;100.00
23574;BME280;11965;53.640;10.050;2023-07-30T06:42:05;100598.31;;;18.52;100.00
23574;BME280;11965;53.640;10.050;2023-07-30T06:44:33;100614.53;;;18.33;100.00
23574;BME280;11965;53.640;10.050;2023-07-30T06:47:02;100605.50;;;18.02;100.00
23574;BME280;11965;53.640;10.050;2023-07-30T06:49:28;100607.63;;;17.83;100.00
23574;BME280;11965;53.640;10.050;2023-07-30T06:51:55;100613.44;;;18.05;100.00
23574;BME280;11965;53.640;10.050;2023-07-30T06:54:22;100607.38;;;18.42;100.00
23574;BME280;11965;53.640;10.050;2023-07-30T06:56:49;100608.22;;;18.43;100.00
23574;BME280;11965;53.640;10.050;2023-07-30T06:59:16;100607.34;;;18.54;100.00
23574;BME280;11965;53.640;10.050;2023-07-30T07:01:42;100608.06;;;18.78;100.00
23574;BME280;11965;53.640;10.050;2023-07-30T07:04:11;100618.13;;;18.17;100.00
23574;BME280;11965;53.640;10.050;2023-07-30T07:06:38;100605.97;;;17.71;100.00
23574;BME280;11965;53.640;10.050;2023-07-30T07:09:04;100620.28;;;17.98;100.00
23574;BME280;11965;53.640;10.050;2023-07-30T07:11:31;100620.34;;;18.43;100.00
23574;BME280;11965;53.640;10.050;2023-07-30T07:13:58;100618.06;;;18.74;100.00
23574;BME280;11965;53.640;10.050;2023-07-30T07:16:25;100634.69;;;18.75;100.00
23574;BME280;11965;53.640;10.050;2023-07-30T07:18:52;100620.47;;;18.82;100.00
23574;BME280;11965;53.640;10.050;2023-07-30T07:21:20;100627.09;;;19.10;100.00
23574;BME280;11965;53.640;10.050;2023-07-30T07:23:47;100626.56;;;19.30;100.00
23574;BME280;11965;53.640;10.050;2023-07-30T07:26:14;100629.63;;;19.45;100.00
23574;BME280;11965;53.640;10.050;2023-07-30T07:28:41;100624.47;;;19.59;100.00
23574;BME280;11965;53.640;10.050;2023-07-30T07:31:07;100635.84;;;19.30;100.00
23574;BME280;11965;53.640;10.050;2023-07-30T07:33:34;100639.28;;;18.98;100.00
23574;BME280;11965;53.640;10.050;2023-07-30T07:36:03;100628.81;;;19.50;100.00
23574;BME280;11965;53.640;10.050;2023-07-30T07:38:33;100632.16;;;19.47;100.00
23574;BME280;11965;53.640;10.050;2023-07-30T07:41:01;100627.50;;;19.96;100.00
23574;BME280;11965;53.640;10.050;2023-07-30T07:43:28;100628.28;;;19.92;100.00
23574;BME280;11965;53.640;10.050;2023-07-30T07:45:54;100622.53;;;19.81;100.00
23574;BME280;11965;53.640;10.050;2023-07-30T07:48:21;100625.47;;;19.92;100.00
23574;BME280;11965;53.640;10.050;2023-07-30T07:50:48;100619.56;;;19.93;100.00
23574;BME280;11965;53.640;10.050;2023-07-30T07:53:15;100622.94;;;20.39;98.91
23574;BME280;11965;53.640;10.050;2023-07-30T07:55:43;100629.91;;;19.88;100.00
23574;BME280;11965;53.640;10.050;2023-07-30T07:58:10;100626.69;;;20.01;100.00
23574;BME280;11965;53.640;10.050;2023-07-30T08:00:37;100615.72;;;20.81;96.35
23574;BME280;11965;53.640;10.050;2023-07-30T08:03:03;100614.03;;;21.17;91.39
23574;BME280;11965;53.640;10.050;2023-07-30T08:05:30;100609.66;;;20.94;92.80
23574;BME280;11965;53.640;10.050;2023-07-30T08:07:57;100606.16;;;20.82;95.02
23574;BME280;11965;53.640;10.050;2023-07-30T08:10:24;100624.00;;;20.11;96.88
23574;BME280;11965;53.640;10.050;2023-07-30T08:12:52;100616.75;;;19.93;100.00
23574;BME280;11965;53.640;10.050;2023-07-30T08:15:19;100611.59;;;19.85;100.00
23574;BME280;11965;53.640;10.050;2023-07-30T08:17:46;100606.88;;;19.91;100.00
23574;BME280;11965;53.640;10.050;2023-07-30T08:20:13;100612.94;;;19.60;100.00
23574;BME280;11965;53.640;10.050;2023-07-30T08:22:40;100606.84;;;19.85;100.00
23574;BME280;11965;53.640;10.050;2023-07-30T08:25:07;100603.22;;;20.39;97.68
23574;BME280;11965;53.640;10.050;2023-07-30T08:27:34;100604.50;;;20.54;100.00
23574;BME280;11965;53.640;10.050;2023-07-30T08:30:02;100605.16;;;20.98;95.64
23574;BME280;11965;53.640;10.050;2023-07-30T08:32:29;100612.03;;;21.12;92.04
23574;BME280;11965;53.640;10.050;2023-07-30T08:34:56;100602.41;;;21.46;86.04
23574;BME280;11965;53.640;10.050;2023-07-30T08:37:23;100599.38;;;21.15;89.45
23574;BME280;11965;53.640;10.050;2023-07-30T08:39:50;100596.41;;;21.37;88.74
23574;BME280;11965;53.640;10.050;2023-07-30T08:42:17;100602.16;;;21.10;89.54
23574;BME280;11965;53.640;10.050;2023-07-30T08:44:44;100608.03;;;21.40;89.85
23574;BME280;11965;53.640;10.050;2023-07-30T08:47:12;100599.38;;;21.15;91.33
23574;BME280;11965;53.640;10.050;2023-07-30T08:49:39;100594.69;;;21.83;84.66
23574;BME280;11965;53.640;10.050;2023-07-30T08:52:10;100588.16;;;21.73;82.60
23574;BME280;11965;53.640;10.050;2023-07-30T08:54:38;100600.63;;;21.82;81.66
23574;BME280;11965;53.640;10.050;2023-07-30T08:57:06;100608.78;;;21.78;83.60
23574;BME280;11965;53.640;10.050;2023-07-30T08:59:39;100599.72;;;21.66;82.85
23574;BME280;11965;53.640;10.050;2023-07-30T09:02:16;100611.56;;;22.41;79.95
23574;BME280;11965;53.640;10.050;2023-07-30T09:04:47;100613.53;;;22.41;74.50
23574;BME280;11965;53.640;10.050;2023-07-30T09:07:17;100620.28;;;22.35;77.84
23574;BME280;11965;53.640;10.050;2023-07-30T09:09:45;100614.63;;;22.19;76.09
23574;BME280;11965;53.640;10.050;2023-07-30T09:12:14;100609.47;;;22.06;81.86
23574;BME280;11965;53.640;10.050;2023-07-30T09:14:41;100618.44;;;21.88;79.52
23574;BME280;11965;53.640;10.050;2023-07-30T09:17:10;100622.22;;;22.19;74.24
23574;BME280;11965;53.640;10.050;2023-07-30T09:19:39;100621.28;;;21.93;77.37
23574;BME280;11965;53.640;10.050;2023-07-30T09:22:06;100613.41;;;22.05;76.65
23574;BME280;11965;53.640;10.050;2023-07-30T09:24:33;100619.34;;;22.14;78.27
23574;BME280;11965;53.640;10.050;2023-07-30T09:27:02;100619.25;;;21.83;82.01
23574;BME280;11965;53.640;10.050;2023-07-30T09:29:29;100623.09;;;22.19;78.73
23574;BME280;11965;53.640;10.050;2023-07-30T09:31:56;100617.78;;;22.43;74.34
23574;BME280;11965;53.640;10.050;2023-07-30T09:34:24;100615.22;;;22.42;73.50
23574;BME280;11965;53.640;10.050;2023-07-30T09:36:54;100626.50;;;22.37;74.93
23574;BME280;11965;53.640;10.050;2023-07-30T09:39:24;100615.88;;;21.86;75.48
23574;BME280;11965;53.640;10.050;2023-07-30T09:41:53;100623.88;;;21.47;81.47
23574;BME280;11965;53.640;10.050;2023-07-30T09:44:25;100631.00;;;21.65;81.18
23574;BME280;11965;53.640;10.050;2023-07-30T09:46:52;100613.66;;;21.98;79.74
23574;BME280;11965;53.640;10.050;2023-07-30T09:49:19;100616.72;;;21.87;78.04
23574;BME280;11965;53.640;10.050;2023-07-30T09:51:46;100622.97;;;21.99;79.47
23574;BME280;11965;53.640;10.050;2023-07-30T09:54:15;100625.50;;;21.90;76.10
23574;BME280;11965;53.640;10.050;2023-07-30T09:56:42;100631.81;;;21.60;77.76
23574;BME280;11965;53.640;10.050;2023-07-30T10:01:42;100629.19;;;21.43;78.50
23574;BME280;11965;53.640;10.050;2023-07-30T10:04:10;100638.09;;;21.30;81.25
23574;BME280;11965;53.640;10.050;2023-07-30T10:06:46;100651.66;;;21.01;79.61
23574;BME280;11965;53.640;10.050;2023-07-30T10:09:17;100640.91;;;21.30;76.03
23574;BME280;11965;53.640;10.050;2023-07-30T10:11:48;100644.66;;;21.88;74.10
23574;BME280;11965;53.640;10.050;2023-07-30T10:14:21;100631.31;;;22.36;75.06
23574;BME280;11965;53.640;10.050;2023-07-30T10:16:50;100647.25;;;23.14;68.50
23574;BME280;11965;53.640;10.050;2023-07-30T10:19:22;100635.88;;;23.34;71.68
23574;BME280;11965;53.640;10.050;2023-07-30T10:21:49;100643.19;;;23.66;68.10
23574;BME280;11965;53.640;10.050;2023-07-30T10:24:17;100645.22;;;22.94;69.05
23574;BME280;11965;53.640;10.050;2023-07-30T10:26:44;100655.56;;;22.32;74.16
23574;BME280;11965;53.640;10.050;2023-07-30T10:29:15;100655.31;;;22.34;69.25
23574;BME280;11965;53.640;10.050;2023-07-30T10:31:44;100664.66;;;21.81;75.03
23574;BME280;11965;53.640;10.050;2023-07-30T10:34:14;100661.22;;;21.69;69.11
23574;BME280;11965;53.640;10.050;2023-07-30T10:36:43;100659.53;;;21.31;74.83
23574;BME280;11965;53.640;10.050;2023-07-30T10:41:40;100665.75;;;21.75;74.43
23574;BME280;11965;53.640;10.050;2023-07-30T10:44:07;100658.38;;;21.69;74.10
23574;BME280;11965;53.640;10.050;2023-07-30T10:46:43;100662.72;;;21.87;75.83
23574;BME280;11965;53.640;10.050;2023-07-30T10:49:10;100662.16;;;21.90;72.71
23574;BME280;11965;53.640;10.050;2023-07-30T10:51:37;100653.38;;;22.70;68.97
23574;BME280;11965;53.640;10.050;2023-07-30T10:54:06;100655.06;;;22.50;69.82
23574;BME280;11965;53.640;10.050;2023-07-30T10:56:36;100662.94;;;22.33;71.91
23574;BME280;11965;53.640;10.050;2023-07-30T10:59:05;100654.50;;;22.59;69.03
23574;BME280;11965;53.640;10.050;2023-07-30T11:01:36;100650.03;;;22.88;70.62
23574;BME280;11965;53.640;10.050;2023-07-30T11:04:06;100659.38;;;23.14;62.27
23574;BME280;11965;53.640;10.050;2023-07-30T11:06:33;100662.19;;;22.84;61.48
23574;BME280;11965;53.640;10.050;2023-07-30T11:09:00;100650.28;;;22.66;63.38
23574;BME280;11965;53.640;10.050;2023-07-30T11:11:27;100648.22;;;22.26;65.19
23574;BME280;11965;53.640;10.050;2023-07-30T11:13:54;100649.69;;;22.59;65.26
23574;BME280;11965;53.640;10.050;2023-07-30T11:16:23;100651.72;;;22.79;62.05
23574;BME280;11965;53.640;10.050;2023-07-30T11:18:50;100646.63;;;22.76;61.31
23574;BME280;11965;53.640;10.050;2023-07-30T11:21:18;100646.09;;;23.30;59.47
23574;BME280;11965;53.640;10.050;2023-07-30T11:23:45;100652.06;;;23.08;61.94
23574;BME280;11965;53.640;10.050;2023-07-30T11:26:14;100647.53;;;22.97;61.82
23574;BME280;11965;53.640;10.050;2023-07-30T11:28:42;100657.91;;;23.58;59.12
23574;BME280;11965;53.640;10.050;2023-07-30T11:31:10;100646.03;;;23.71;56.01
23574;BME280;11965;53.640;10.050;2023-07-30T11:33:40;100646.09;;;23.20;57.67
23574;BME280;11965;53.640;10.050;2023-07-30T11:36:10;100651.19;;;23.18;63.15
23574;BME280;11965;53.640;10.050;2023-07-30T11:38:38;100648.06;;;23.04;58.83
23574;BME280;11965;53.640;10.050;2023-07-30T11:41:07;100642.13;;;22.90;57.91
23574;BME280;11965;53.640;10.050;2023-07-30T11:43:37;100640.44;;;23.20;54.81
23574;BME280;11965;53.640;10.050;2023-07-30T11:46:11;100629.44;;;23.13;59.21
23574;BME280;11965;53.640;10.050;2023-07-30T11:48:40;100632.19;;;23.59;55.97
23574;BME280;11965;53.640;10.050;2023-07-30T11:51:19;100638.69;;;23.55;56.23
23574;BME280;11965;53.640;10.050;2023-07-30T11:53:48;100626.00;;;22.70;62.56
23574;BME280;11965;53.640;10.050;2023-07-30T11:56:20;100635.41;;;22.03;61.37
23574;BME280;11965;53.640;10.050;2023-07-30T11:58:49;100627.19;;;21.96;60.44
23574;BME280;11965;53.640;10.050;2023-07-30T12:01:17;100620.28;;;22.35;61.33
23574;BME280;11965;53.640;10.050;2023-07-30T12:03:45;100621.47;;;22.64;61.38
23574;BME280;11965;53.640;10.050;2023-07-30T12:06:13;100625.44;;;22.94;57.41
23574;BME280;11965;53.640;10.050;2023-07-30T12:08:39;100628.53;;;22.72;57.70
23574;BME280;11965;53.640;10.050;2023-07-30T12:11:08;100626.25;;;22.59;56.16
23574;BME280;11965;53.640;10.050;2023-07-30T12:13:42;100610.38;;;22.27;55.58
23574;BME280;11965;53.640;10.050;2023-07-30T12:16:11;100613.25;;;22.42;59.04
23574;BME280;11965;53.640;10.050;2023-07-30T12:18:39;100617.81;;;22.84;54.66
23574;BME280;11965;53.640;10.050;2023-07-30T12:21:08;100603.66;;;22.64;57.71
23574;BME280;11965;53.640;10.050;2023-07-30T12:23:36;100602.19;;;22.20;61.47
23574;BME280;11965;53.640;10.050;2023-07-30T12:26:03;100601.41;;;22.66;57.97
23574;BME280;11965;53.640;10.050;2023-07-30T12:28:31;100602.00;;;23.29;54.92
23574;BME280;11965;53.640;10.050;2023-07-30T12:30:59;100588.91;;;23.54;53.54
23574;BME280;11965;53.640;10.050;2023-07-30T12:33:26;100587.44;;;23.67;57.18
23574;BME280;11965;53.640;10.050;2023-07-30T12:35:53;100576.94;;;23.83;56.27
23574;BME280;11965;53.640;10.050;2023-07-30T12:38:21;100577.94;;;24.07;54.62
23574;BME280;11965;53.640;10.050;2023-07-30T12:40:48;100584.69;;;23.51;53.42